Time;durP1;ratioP1;P1;durP2;ratioP2;P2;SDS_P1;SDS_P2;PMS_P1;PMS_P2;Temp;Humidity;BMP_temperature;BMP_pressure;BME280_temperature;BME280_humidity;BME280_pressure;Samples;Min_cycle;Max_cycle;Signal;HPM_P1;HPM_P2
2023/10/16 00:01:20;;;;;;;5.70;2.20;;;;;;;11.27;65.26;99884.30;105208;1258;64948;-57
2023/10/16 00:03:51;;;;;;;4.00;1.00;;;;;;;11.21;65.49;99885.23;105190;1257;70754;-53
2023/10/16 00:06:19;;;;;;;6.60;1.90;;;;;;;11.18;65.64;99883.70;105209;1257;63734;-52
2023/10/16 00:08:53;;;;;;;4.90;1.90;;;;;;;11.16;65.54;99887.88;105968;1258;60744;-53
2023/10/16 00:11:24;;;;;;;3.60;0.60;;;;;;;11.16;65.34;99887.71;105745;1261;60424;-53
2023/10/16 00:13:52;;;;;;;5.90;1.70;;;;;;;11.15;65.41;99882.55;105283;1257;74216;-54
2023/10/16 00:16:23;;;;;;;4.80;1.70;;;;;;;11.16;65.60;99880.34;105774;1263;60867;-54
2023/10/16 00:18:53;;;;;;;7.20;1.90;;;;;;;11.19;65.78;99877.52;105276;1258;63742;-53
2023/10/16 00:21:24;;;;;;;6.70;1.90;;;;;;;11.18;65.67;99879.65;105637;1257;60469;-53
2023/10/16 00:23:54;;;;;;;7.40;2.10;;;;;;;11.14;65.69;99874.52;105161;1262;60365;-54
2023/10/16 00:26:23;;;;;;;2.90;1.00;;;;;;;11.11;65.74;99874.52;105780;1262;64849;-54
2023/10/16 00:29:17;;;;;;;5.90;1.80;;;;;;;11.14;65.53;99877.73;105732;1257;60396;-53
2023/10/16 00:31:46;;;;;;;2.80;0.80;;;;;;;11.17;65.50;99874.10;105262;1258;62453;-53
2023/10/16 00:34:19;;;;;;;5.00;1.80;;;;;;;11.10;65.51;99873.36;105295;1258;60866;-53
2023/10/16 00:36:49;;;;;;;4.90;1.90;;;;;;;11.01;65.58;99874.19;105798;1262;60540;-53
2023/10/16 00:39:19;;;;;;;3.80;1.10;;;;;;;10.94;65.84;99870.00;105888;1260;63653;-53
2023/10/16 00:41:50;;;;;;;6.80;2.30;;;;;;;10.87;65.91;99867.67;105765;1263;60565;-53
2023/10/16 00:44:18;;;;;;;6.60;2.50;;;;;;;10.78;66.09;99865.47;105226;1261;62543;-53
2023/10/16 00:46:48;;;;;;;7.00;1.90;;;;;;;10.77;66.17;99860.82;105846;1257;60562;-53
2023/10/16 00:49:18;;;;;;;4.60;1.10;;;;;;;10.79;66.25;99860.33;105810;1260;60428;-54
2023/10/16 00:51:47;;;;;;;6.00;2.40;;;;;;;10.82;66.47;99854.23;105794;1262;64965;-53
2023/10/16 00:54:19;;;;;;;7.10;2.40;;;;;;;10.86;66.45;99850.38;105885;1263;61552;-54
2023/10/16 00:56:51;;;;;;;6.10;1.10;;;;;;;10.84;66.30;99853.42;105784;1257;63698;-54
2023/10/16 00:59:23;;;;;;;6.80;2.10;;;;;;;10.75;66.35;99854.16;105657;1257;60532;-53
2023/10/16 01:02:40;;;;;;;5.90;2.10;;;;;;;10.71;66.63;99852.48;105723;1263;61937;-53
2023/10/16 01:04:40;;;;;;;3.10;0.50;;;;;;;10.72;66.36;99850.45;105152;1258;65035;-53
2023/10/16 01:07:09;;;;;;;7.70;1.90;;;;;;;10.73;66.46;99848.90;105337;1260;60542;-54
2023/10/16 01:09:39;;;;;;;5.70;2.00;;;;;;;10.75;66.50;99847.74;105413;1257;63789;-54
2023/10/16 01:12:07;;;;;;;3.70;0.40;;;;;;;10.70;66.57;99855.19;105187;1258;60450;-54
2023/10/16 01:14:35;;;;;;;4.60;1.50;;;;;;;10.62;66.69;99855.02;105435;1258;60539;-52
2023/10/16 01:17:04;;;;;;;4.10;0.60;;;;;;;10.52;66.35;99861.27;105192;1263;64946;-51
2023/10/16 01:19:32;;;;;;;5.20;1.40;;;;;;;10.40;66.05;99861.48;105416;1263;61334;-52
2023/10/16 01:21:59;;;;;;;1.80;0.50;;;;;;;10.35;65.76;99859.46;105276;1258;63715;-52
2023/10/16 01:24:27;;;;;;;5.10;1.50;;;;;;;10.36;65.72;99852.88;105285;1259;60572;-53
2023/10/16 01:27:10;;;;;;;1.90;0.40;;;;;;;10.36;65.76;99849.05;105726;1254;60524;-53
2023/10/16 01:29:37;;;;;;;5.40;1.40;;;;;;;10.33;65.24;99851.39;105407;1260;64915;-54
2023/10/16 01:32:05;;;;;;;2.00;0.50;;;;;;;10.27;65.04;99854.89;105301;1259;61320;-53
2023/10/16 01:34:34;;;;;;;3.00;0.90;;;;;;;10.19;65.13;99854.33;105486;1258;63694;-53
2023/10/16 01:37:04;;;;;;;2.40;0.60;;;;;;;10.17;65.16;99855.73;105333;1260;60427;-53
2023/10/16 01:39:48;;;;;;;4.40;1.00;;;;;;;10.19;65.05;99856.98;105701;1256;60556;-53
2023/10/16 01:42:17;;;;;;;2.70;0.50;;;;;;;10.17;64.86;99853.64;106147;1254;63715;-53
2023/10/16 01:44:46;;;;;;;1.40;0.20;;;;;;;10.12;65.04;99849.81;106220;1256;61314;-52
2023/10/16 01:47:15;;;;;;;3.70;1.00;;;;;;;10.07;65.25;99846.47;105502;1254;63855;-52
2023/10/16 01:49:44;;;;;;;4.50;1.00;;;;;;;10.00;65.17;99846.16;105586;1256;60561;-52
2023/10/16 01:52:12;;;;;;;2.40;0.50;;;;;;;9.98;64.86;99847.59;105553;1266;60344;-52
2023/10/16 01:54:40;;;;;;;4.00;1.10;;;;;;;10.00;64.67;99849.13;105594;1251;64942;-55
2023/10/16 01:57:12;;;;;;;2.70;0.30;;;;;;;9.98;64.75;99846.02;105665;1256;61912;-53
2023/10/16 01:59:44;;;;;;;4.60;1.10;;;;;;;9.92;64.67;99850.15;105548;1257;62478;-53
2023/10/16 02:02:13;;;;;;;2.40;0.40;;;;;;;9.87;64.71;99857.92;105448;1251;60484;-55
2023/10/16 02:04:42;;;;;;;0.50;0.10;;;;;;;9.80;64.69;99859.25;105551;1256;60367;-52
2023/10/16 02:07:11;;;;;;;3.30;0.90;;;;;;;9.77;64.85;99859.73;105624;1257;64868;-54
2023/10/16 02:09:40;;;;;;;1.20;0.30;;;;;;;9.79;64.84;99863.58;105627;1256;63985;-56
2023/10/16 02:12:14;;;;;;;2.40;0.80;;;;;;;9.79;64.88;99863.16;105602;1255;63763;-52
2023/10/16 02:14:44;;;;;;;2.90;0.80;;;;;;;9.76;65.04;99863.23;105350;1257;60581;-53
2023/10/16 02:17:21;;;;;;;3.00;0.90;;;;;;;9.74;65.11;99861.33;105350;1257;60568;-53
2023/10/16 02:19:50;;;;;;;1.00;0.40;;;;;;;9.71;65.15;99857.89;105480;1257;63733;-54
2023/10/16 02:22:20;;;;;;;0.90;0.30;;;;;;;9.68;65.25;99852.77;106011;1257;60476;-54
2023/10/16 02:24:48;;;;;;;4.10;1.00;;;;;;;9.64;65.39;99849.36;105455;1254;63709;-56
2023/10/16 02:27:18;;;;;;;2.00;0.60;;;;;;;9.61;65.52;99839.85;106182;1256;60462;-54
2023/10/16 02:29:49;;;;;;;1.90;0.40;;;;;;;9.64;65.55;99833.50;106195;1254;60511;-52
2023/10/16 02:32:17;;;;;;;5.50;1.50;;;;;;;9.68;65.32;99826.96;105373;1254;65066;-55
2023/10/16 02:34:44;;;;;;;4.60;1.10;;;;;;;9.73;65.24;99821.52;105525;1254;61300;-55
2023/10/16 02:37:14;;;;;;;1.00;0.30;;;;;;;9.77;65.11;99820.11;107108;1256;63788;-53
2023/10/16 02:39:50;;;;;;;4.90;1.10;;;;;;;9.79;65.20;99819.40;105561;1256;60570;-50
2023/10/16 02:42:19;;;;;;;2.80;0.20;;;;;;;9.82;65.06;99812.98;106228;1251;60315;-52
2023/10/16 02:44:47;;;;;;;3.10;1.00;;;;;;;9.84;65.06;99814.76;106169;1256;64858;-52
2023/10/16 02:47:25;;;;;;;2.70;0.60;;;;;;;9.82;65.22;99814.20;105593;1253;62117;-52
2023/10/16 02:49:56;;;;;;;3.60;0.60;;;;;;;9.81;65.39;99816.35;105989;1256;63778;-53
2023/10/16 02:52:25;;;;;;;3.70;1.00;;;;;;;9.81;65.24;99818.31;106018;1253;60420;-53
2023/10/16 02:54:56;;;;;;;1.20;0.20;;;;;;;9.80;65.08;99817.02;105469;1257;60482;-53
2023/10/16 02:57:27;;;;;;;3.20;0.80;;;;;;;9.82;64.94;99815.84;105984;1252;65397;-57
2023/10/16 02:59:56;;;;;;;1.80;0.30;;;;;;;9.87;65.00;99818.35;106019;1251;61439;-61
2023/10/16 03:02:27;;;;;;;3.20;1.00;;;;;;;9.91;65.16;99822.42;105976;1256;63755;-64
2023/10/16 03:05:10;;;;;;;3.40;0.50;;;;;;;9.92;65.25;99818.11;105806;1254;60667;-62
2023/10/16 03:07:44;;;;;;;4.20;1.20;;;;;;;9.88;65.42;99818.23;105378;1257;60585;-60
2023/10/16 03:10:13;;;;;;;1.80;0.60;;;;;;;9.82;65.36;99825.56;105585;1257;64905;-60
2023/10/16 03:12:42;;;;;;;6.50;1.60;;;;;;;9.73;65.47;99827.42;105668;1251;61282;-59
2023/10/16 03:15:15;;;;;;;2.10;0.40;;;;;;;9.64;65.73;99833.08;105615;1254;64374;-60
2023/10/16 03:17:42;;;;;;;4.60;1.10;;;;;;;9.57;65.97;99826.89;105565;1257;60433;-61
2023/10/16 03:20:20;;;;;;;6.10;1.40;;;;;;;9.50;66.11;99823.23;105570;1256;60290;-61
2023/10/16 03:22:49;;;;;;;1.10;0.20;;;;;;;9.54;66.40;99819.10;106154;1257;64945;-60
2023/10/16 03:28:05;;;;;;;1.50;0.30;;;;;;;9.68;66.43;99803.38;105535;1254;64284;-60
2023/10/16 03:30:33;;;;;;;3.50;1.00;;;;;;;9.71;66.35;99802.56;105573;1260;60453;-60
2023/10/16 03:33:03;;;;;;;2.20;0.30;;;;;;;9.74;66.47;99806.86;105822;1257;60354;-60
2023/10/16 03:35:31;;;;;;;3.70;1.10;;;;;;;9.75;66.39;99814.85;105802;1257;64906;-60
2023/10/16 03:38:01;;;;;;;1.30;0.30;;;;;;;9.73;66.37;99818.66;105835;1251;61435;-60
2023/10/16 03:40:30;;;;;;;4.60;1.20;;;;;;;9.70;66.40;99826.27;105983;1251;64301;-60
2023/10/16 03:42:58;;;;;;;1.10;0.70;;;;;;;9.68;66.34;99827.69;105945;1253;60555;-60
2023/10/16 03:45:26;;;;;;;5.30;1.30;;;;;;;9.66;66.12;99825.25;105684;1257;60606;-59
2023/10/16 03:47:57;;;;;;;4.40;0.50;;;;;;;9.65;66.16;99826.23;106056;1256;64917;-57
2023/10/16 03:50:38;;;;;;;4.60;1.10;;;;;;;9.59;66.25;99828.44;106095;1261;61645;-58
2023/10/16 03:53:08;;;;;;;2.50;0.80;;;;;;;9.55;66.29;99831.60;105663;1256;63741;-58
2023/10/16 03:55:54;;;;;;;3.50;1.20;;;;;;;9.51;66.63;99830.73;105528;1257;60580;-57
2023/10/16 03:58:22;;;;;;;2.60;0.20;;;;;;;9.45;66.93;99827.11;105563;1257;60545;-57
2023/10/16 04:00:59;;;;;;;3.90;1.30;;;;;;;9.41;67.07;99826.23;105577;1251;63723;-60
2023/10/16 04:03:27;;;;;;;3.10;0.90;;;;;;;9.35;67.13;99820.64;105745;1257;61399;-61
2023/10/16 04:05:54;;;;;;;3.50;1.00;;;;;;;9.33;67.26;99816.63;105984;1257;63739;-59
2023/10/16 04:08:22;;;;;;;1.30;0.30;;;;;;;9.36;67.20;99816.59;105585;1254;60458;-60
2023/10/16 04:10:53;;;;;;;5.30;1.60;;;;;;;9.39;67.22;99816.68;105512;1257;60422;-57
2023/10/16 04:13:27;;;;;;;3.20;0.40;;;;;;;9.39;67.18;99815.94;106116;1251;65022;-55
2023/10/16 04:18:33;;;;;;;3.80;0.90;;;;;;;9.29;67.45;99820.30;105654;1254;63730;-57
2023/10/16 04:31:45;;;;;;;4.20;1.30;;;;;;;9.35;67.61;99828.58;105480;1257;63696;-60
2023/10/16 04:50:30;;;;;;;1.60;0.30;;;;;;;9.43;67.11;99819.77;105906;1258;60571;-60
2023/10/16 04:53:25;;;;;;;4.30;1.50;;;;;;;9.48;67.20;99827.45;105452;1264;65045;-61
2023/10/16 04:56:01;;;;;;;2.30;0.40;;;;;;;9.51;67.21;99828.62;105979;1257;61826;-61
2023/10/16 04:58:38;;;;;;;4.10;1.40;;;;;;;9.53;67.33;99821.64;105818;1263;62535;-54
2023/10/16 05:13:17;;;;;;;2.80;0.40;;;;;;;9.33;67.15;99822.95;105647;1253;63753;-60
2023/10/16 05:19:53;;;;;;;;;;;;;;;9.36;67.56;99796.11;106223;1251;64854;-59
2023/10/16 06:15:07;;;;;;;;;;;;;;;9.47;68.29;99815.66;105622;1257;65635;-54
2023/10/16 06:17:37;;;;;;;2.50;1.00;;;;;;;9.39;68.59;99819.79;105831;1256;60431;-54
2023/10/16 06:20:09;;;;;;;3.50;0.90;;;;;;;9.32;68.80;99828.92;105539;1254;64130;-47
2023/10/16 06:22:37;;;;;;;6.30;2.60;;;;;;;9.25;69.24;99829.70;105525;1254;60513;-55
2023/10/16 06:25:10;;;;;;;2.50;1.10;;;;;;;9.26;69.36;99831.92;105517;1251;60531;-55
2023/10/16 06:27:41;;;;;;;6.10;2.70;;;;;;;9.29;69.13;99840.23;105564;1256;64905;-55
2023/10/16 06:30:18;;;;;;;3.40;1.30;;;;;;;9.34;69.08;99849.83;105410;1257;61608;-54
2023/10/16 06:32:49;;;;;;;7.00;2.90;;;;;;;9.38;69.17;99857.36;105602;1257;62529;-56
2023/10/16 06:35:17;;;;;;;5.60;1.40;;;;;;;9.42;69.17;99863.34;106131;1256;60440;-53
2023/10/16 06:37:51;;;;;;;6.40;3.00;;;;;;;9.41;69.08;99863.88;105607;1251;60655;-54
2023/10/16 06:40:24;;;;;;;4.70;1.80;;;;;;;9.39;69.24;99864.95;105598;1257;64960;-55
2023/10/16 06:43:11;;;;;;;7.00;3.00;;;;;;;9.37;69.14;99861.15;105991;1254;61361;-55
2023/10/16 06:45:42;;;;;;;7.10;1.40;;;;;;;9.33;69.09;99857.98;105475;1257;63757;-54
2023/10/16 06:48:16;;;;;;;9.70;3.20;;;;;;;9.36;69.12;99855.98;105699;1251;60532;-49
2023/10/16 06:50:53;;;;;;;3.70;1.40;;;;;;;9.44;69.15;99856.30;106350;1251;60331;-53
2023/10/16 06:53:22;;;;;;;8.10;3.60;;;;;;;9.57;69.08;99854.39;105871;1256;63657;-54
2023/10/16 06:55:53;;;;;;;8.80;4.40;;;;;;;9.66;68.79;99851.48;109386;1251;62119;-63
2023/10/16 06:58:21;;;;;;;5.80;1.90;;;;;;;9.74;68.20;99851.55;109398;1251;63965;-59
2023/10/16 07:00:51;;;;;;;7.90;4.10;;;;;;;9.74;68.02;99852.72;109388;1251;58076;-60
2023/10/16 07:03:20;;;;;;;6.00;1.80;;;;;;;9.76;67.96;99854.36;107697;1256;58987;-60
2023/10/16 07:05:48;;;;;;;8.80;4.10;;;;;;;9.75;67.88;99847.57;107674;1254;65091;-60
2023/10/16 07:08:17;;;;;;;8.30;4.50;;;;;;;9.80;67.75;99844.73;105449;1256;61015;-60
2023/10/16 07:10:49;;;;;;;3.50;1.30;;;;;;;9.88;67.52;99845.04;105507;1257;63761;-59
2023/10/16 07:13:31;;;;;;;8.90;4.00;;;;;;;9.98;67.32;99846.00;105551;1251;60546;-58
2023/10/16 07:16:01;;;;;;;10.20;4.90;;;;;;;10.07;67.08;99846.91;105537;1256;60354;-61
2023/10/16 07:18:32;;;;;;;6.10;1.80;;;;;;;10.14;66.92;99850.73;105852;1254;65056;-61
2023/10/16 07:21:00;;;;;;;10.80;4.70;;;;;;;10.14;66.46;99851.27;105831;1256;60549;-62
2023/10/16 07:23:34;;;;;;;7.50;2.20;;;;;;;10.13;66.24;99847.32;105836;1257;64217;-63
2023/10/16 07:26:03;;;;;;;10.00;5.00;;;;;;;10.12;65.95;99852.13;105634;1257;60553;-61
2023/10/16 07:28:31;;;;;;;7.80;4.20;;;;;;;10.05;65.51;99853.40;105844;1251;60443;-62
2023/10/16 07:30:59;;;;;;;6.60;2.10;;;;;;;9.99;65.40;99853.98;105849;1251;67627;-63
2023/10/16 07:33:28;;;;;;;9.90;4.60;;;;;;;9.99;65.43;99859.55;105286;1251;383927;-63
2023/10/16 07:37:28;;;;;;;6.70;2.50;;;;;;;9.95;65.88;99860.24;102481;1296;600222;-63
2023/10/16 07:39:56;;;;;;;9.00;4.90;;;;;;;10.16;65.26;99859.31;104497;1272;59356;-60
2023/10/16 07:42:24;;;;;;;7.20;1.90;;;;;;;10.17;65.27;99859.23;104484;1271;60274;-70
2023/10/16 07:44:54;;;;;;;9.20;4.60;;;;;;;10.16;65.16;99863.48;104950;1266;62107;-62
2023/10/16 07:47:22;;;;;;;5.30;2.10;;;;;;;10.17;64.84;99865.55;104957;1266;61355;-62
2023/10/16 07:49:49;;;;;;;6.80;4.00;;;;;;;10.22;64.50;99860.91;104207;1264;235821;-61
2023/10/16 07:52:18;;;;;;;9.80;4.30;;;;;;;10.28;64.42;99863.38;105452;1266;59285;-59
2023/10/16 07:54:46;;;;;;;5.30;2.10;;;;;;;10.33;64.78;99862.77;105530;1268;59269;-60
2023/10/16 07:57:17;;;;;;;10.20;4.60;;;;;;;10.36;64.74;99859.16;104876;1264;63276;-56
2023/10/16 07:59:47;;;;;;;5.60;2.30;;;;;;;10.38;64.50;99860.41;104805;1264;61881;-56
2023/10/16 08:02:19;;;;;;;9.10;4.70;;;;;;;10.35;64.32;99863.86;104881;1267;63701;-53
2023/10/16 08:04:52;;;;;;;9.90;5.00;;;;;;;10.31;64.15;99862.09;105430;1264;59727;-54
2023/10/16 08:07:40;;;;;;;3.80;1.30;;;;;;;10.40;64.03;99859.39;105289;1269;59514;-54
2023/10/16 08:12:54;;;;;;;7.60;4.10;;;;;;;10.57;63.44;99864.16;104758;1267;61551;-55
2023/10/16 08:15:23;;;;;;;9.10;4.80;;;;;;;10.61;63.45;99867.02;104743;1267;63787;-60
2023/10/16 08:17:51;;;;;;;7.10;2.10;;;;;;;10.68;63.13;99866.20;105292;1269;59337;-60
2023/10/16 08:20:20;;;;;;;7.00;3.70;;;;;;;10.73;63.11;99866.52;105395;1269;58206;-63
2023/10/16 08:22:47;;;;;;;11.40;4.70;;;;;;;10.75;63.17;99864.73;105376;1267;64138;-61
2023/10/16 08:25:30;;;;;;;9.40;2.60;;;;;;;10.70;63.04;99864.23;104484;1269;60312;-57
2023/10/16 08:28:01;;;;;;;11.20;4.50;;;;;;;10.72;62.72;99860.77;104696;1267;62897;-55
2023/10/16 08:30:33;;;;;;;7.60;2.80;;;;;;;10.82;62.58;99861.10;104769;1269;59829;-56
2023/10/16 08:33:08;;;;;;;12.50;4.50;;;;;;;10.91;62.10;99862.80;105475;1261;59731;-55
2023/10/16 08:35:39;;;;;;;11.90;5.00;;;;;;;10.93;61.94;99868.33;105400;1255;62862;-56
2023/10/16 08:38:25;;;;;;;9.80;5.40;;;;;;;10.96;61.54;99866.70;105226;1254;61860;-57
2023/10/16 08:41:06;;;;;;;6.40;2.50;;;;;;;10.94;61.36;99869.29;105752;1261;63923;-56
2023/10/16 08:46:30;;;;;;;7.50;2.00;;;;;;;10.94;61.91;99877.05;105264;1259;59775;-56
2023/10/16 08:49:01;;;;;;;9.20;4.50;;;;;;;11.00;61.31;99876.33;105551;1260;64107;-57
2023/10/16 08:51:29;;;;;;;10.20;5.00;;;;;;;11.04;60.93;99876.68;105231;1260;61571;-58
2023/10/16 08:54:03;;;;;;;11.00;4.50;;;;;;;11.14;60.67;99876.49;105619;1261;63836;-56
2023/10/16 08:56:31;;;;;;;4.80;2.10;;;;;;;11.23;59.82;99877.57;105563;1257;59705;-57
2023/10/16 08:59:01;;;;;;;11.90;4.40;;;;;;;11.18;59.17;99875.11;105577;1255;59519;-57
2023/10/16 09:01:29;;;;;;;10.60;4.10;;;;;;;11.13;59.45;99870.09;105573;1260;62993;-55
2023/10/16 09:04:01;;;;;;;5.50;2.30;;;;;;;11.17;59.53;99867.59;105028;1260;60392;-55
2023/10/16 09:06:29;;;;;;;10.80;4.50;;;;;;;11.27;59.54;99859.88;105543;1260;72828;-55
2023/10/16 09:08:58;;;;;;;8.20;4.10;;;;;;;11.38;58.94;99863.95;105386;1257;59706;-56
2023/10/16 09:11:26;;;;;;;9.80;3.90;;;;;;;11.49;57.86;99868.77;105375;1260;59638;-61
2023/10/16 09:13:54;;;;;;;10.00;4.30;;;;;;;11.51;57.45;99860.61;105223;1256;62918;-59
2023/10/16 09:16:30;;;;;;;11.60;4.00;;;;;;;11.54;57.06;99855.95;105216;1261;60521;-61
2023/10/16 09:18:59;;;;;;;9.50;4.30;;;;;;;11.62;56.36;99854.94;105538;1260;65092;-61
2023/10/16 09:21:28;;;;;;;12.50;4.40;;;;;;;11.64;55.82;99848.52;105264;1261;59730;-60
2023/10/16 09:24:00;;;;;;;9.90;2.50;;;;;;;11.68;54.26;99844.30;105547;1261;59781;-63
2023/10/16 09:26:37;;;;;;;9.60;3.60;;;;;;;11.73;53.01;99843.92;105385;1260;63016;-68
2023/10/16 09:29:20;;;;;;;10.80;4.20;;;;;;;11.74;52.17;99841.15;105020;1269;60587;-55
2023/10/16 09:31:49;;;;;;;10.00;3.20;;;;;;;11.74;50.94;99841.02;105893;1262;62529;-55
2023/10/16 09:34:25;;;;;;;8.90;2.90;;;;;;;11.76;51.38;99845.00;105673;1259;59817;-56
2023/10/16 09:39:49;;;;;;;8.60;2.90;;;;;;;11.90;51.50;99852.48;105212;1261;66265;-62
2023/10/16 09:42:24;;;;;;;8.50;3.50;;;;;;;11.94;50.46;99847.60;105668;1263;62534;-62
2023/10/16 09:45:08;;;;;;;8.40;3.10;;;;;;;11.97;49.87;99849.00;105734;1260;64354;-59
2023/10/16 09:47:48;;;;;;;9.30;3.00;;;;;;;12.00;50.40;99848.11;105393;1258;60842;-64
2023/10/16 09:50:22;;;;;;;7.60;2.50;;;;;;;12.01;50.46;99848.49;105512;1254;59682;-60
2023/10/16 09:52:50;;;;;;;9.50;3.00;;;;;;;12.02;50.10;99843.85;105384;1257;65120;-56
2023/10/16 09:55:18;;;;;;;8.80;2.60;;;;;;;12.05;51.00;99846.19;106096;1257;61439;-55
2023/10/16 09:57:54;;;;;;;5.30;1.10;;;;;;;12.08;50.48;99846.20;106014;1255;62589;-55
2023/10/16 10:00:34;;;;;;;3.60;1.00;;;;;;;12.09;48.71;99848.65;105397;1253;59707;-56
2023/10/16 10:03:07;;;;;;;6.30;2.10;;;;;;;12.12;47.94;99844.70;105522;1254;59758;-55
2023/10/16 10:06:08;;;;;;;7.20;2.60;;;;;;;12.16;47.33;99848.27;105689;1257;64246;-56
2023/10/16 10:08:28;;;;;;;9.70;2.60;;;;;;;12.19;45.95;99845.38;105436;1256;60845;-55
2023/10/16 10:11:37;;;;;;;15.40;3.10;;;;;;;12.24;45.50;99842.41;105409;1260;63956;-54
2023/10/16 10:14:20;;;;;;;9.20;2.70;;;;;;;12.31;45.59;99840.54;105509;1254;59707;-53
2023/10/16 10:16:47;;;;;;;8.50;2.10;;;;;;;12.35;45.89;99849.33;106154;1255;62055;-55
2023/10/16 10:19:24;;;;;;;7.20;2.30;;;;;;;12.36;46.61;99850.42;105302;1254;64591;-53
2023/10/16 10:21:55;;;;;;;8.90;2.30;;;;;;;12.37;46.67;99852.63;105873;1260;60316;-53
2023/10/16 10:24:23;;;;;;;4.90;0.90;;;;;;;12.37;46.24;99853.91;105490;1254;63857;-53
2023/10/16 10:26:51;;;;;;;6.80;2.30;;;;;;;12.35;46.27;99855.52;106032;1256;59691;-54
2023/10/16 10:29:20;;;;;;;11.30;2.50;;;;;;;12.34;46.61;99849.63;106174;1254;59708;-53
2023/10/16 10:31:48;;;;;;;7.80;2.20;;;;;;;12.37;46.88;99846.48;106140;1257;64148;-55
2023/10/16 10:34:23;;;;;;;7.10;2.30;;;;;;;12.40;46.33;99848.99;105466;1256;60175;-54
2023/10/16 10:36:51;;;;;;;2.70;1.00;;;;;;;12.41;46.07;99847.30;105999;1257;63766;-51
2023/10/16 10:39:22;;;;;;;6.50;2.30;;;;;;;12.39;46.38;99851.74;105413;1257;60026;-54
2023/10/16 10:41:54;;;;;;;9.10;2.50;;;;;;;12.38;46.14;99852.36;106024;1253;59650;-50
2023/10/16 10:44:31;;;;;;;5.70;2.00;;;;;;;12.41;46.86;99848.73;105962;1253;62974;-54
2023/10/16 10:47:04;;;;;;;6.80;1.70;;;;;;;12.45;45.96;99859.60;105454;1254;60445;-52
2023/10/16 10:49:35;;;;;;;8.30;2.30;;;;;;;12.44;45.25;99851.55;105673;1254;63778;-50
2023/10/16 10:52:06;;;;;;;9.50;2.70;;;;;;;12.45;45.97;99851.81;105648;1257;59734;-51
2023/10/16 10:54:34;;;;;;;7.90;2.30;;;;;;;12.45;46.15;99856.27;105471;1252;59845;-51
2023/10/16 10:57:07;;;;;;;6.40;1.70;;;;;;;12.50;46.06;99858.13;105521;1254;62811;-50
2023/10/16 10:59:41;;;;;;;5.50;2.00;;;;;;;12.55;46.43;99853.23;105607;1257;62049;-51
2023/10/16 11:04:45;;;;;;;8.20;1.00;;;;;;;12.71;45.24;99851.96;105478;1257;59766;-49
2023/10/16 11:07:25;;;;;;;5.00;1.80;;;;;;;12.75;45.10;99848.83;105544;1254;59750;-49
2023/10/16 11:09:53;;;;;;;6.00;2.00;;;;;;;12.75;45.56;99844.73;106089;1254;62970;-46
2023/10/16 11:12:24;;;;;;;9.00;2.30;;;;;;;12.73;45.60;99854.09;105510;1254;63644;-48
2023/10/16 11:14:53;;;;;;;5.00;1.90;;;;;;;12.65;44.42;99852.59;106148;1254;65575;-48
2023/10/16 11:17:34;;;;;;;6.70;1.90;;;;;;;12.57;44.41;99859.40;105316;1257;59704;-47
2023/10/16 11:22:45;;;;;;;6.10;2.10;;;;;;;12.40;44.64;99864.33;105558;1254;62830;-46
2023/10/16 11:25:13;;;;;;;7.60;1.50;;;;;;;12.36;44.57;99863.15;105625;1253;61770;-48
2023/10/16 11:27:42;;;;;;;8.10;2.30;;;;;;;12.34;44.41;99866.08;105563;1254;62846;-47
2023/10/16 11:30:15;;;;;;;8.40;2.30;;;;;;;12.34;44.89;99867.02;105579;1257;59752;-44
2023/10/16 11:32:45;;;;;;;9.00;2.20;;;;;;;12.34;45.29;99868.60;106279;1259;59871;-47
2023/10/16 11:35:15;;;;;;;9.00;2.30;;;;;;;12.34;45.47;99868.38;105292;1251;64695;-51
2023/10/16 11:37:55;;;;;;;7.20;2.40;;;;;;;12.36;45.25;99868.60;108658;1254;60291;-53
2023/10/16 11:40:33;;;;;;;7.90;2.10;;;;;;;12.39;45.07;99867.96;109256;1251;62585;-53
2023/10/16 11:43:02;;;;;;;9.30;2.00;;;;;;;12.39;44.77;99877.40;109424;1251;57593;-52
2023/10/16 11:45:33;;;;;;;10.10;2.40;;;;;;;12.36;44.57;99873.87;105525;1251;59696;-52
2023/10/16 11:50:50;;;;;;;5.70;1.00;;;;;;;12.34;44.87;99876.55;106842;1254;62143;-52
2023/10/16 11:53:23;;;;;;;5.40;2.10;;;;;;;12.34;45.01;99884.06;106811;1257;62437;-52
2023/10/16 11:55:51;;;;;;;6.30;1.70;;;;;;;12.28;44.68;99884.29;109325;1251;58420;-54
2023/10/16 11:58:18;;;;;;;7.80;2.20;;;;;;;12.23;45.22;99886.19;109317;1254;59085;-53
2023/10/16 12:00:53;;;;;;;6.80;2.40;;;;;;;12.22;45.80;99895.59;106261;1251;63670;-50
2023/10/16 12:03:23;;;;;;;7.30;1.90;;;;;;;12.18;45.92;99898.09;105922;1254;61638;-52
2023/10/16 12:05:52;;;;;;;5.90;1.90;;;;;;;12.07;46.28;99898.67;105404;1255;63794;-53
2023/10/16 12:08:21;;;;;;;5.60;2.00;;;;;;;12.01;46.58;99897.56;106767;1254;60642;-53
2023/10/16 12:10:50;;;;;;;4.80;1.40;;;;;;;11.96;46.91;99898.05;106219;1251;60607;-53
2023/10/16 12:13:18;;;;;;;5.90;1.90;;;;;;;11.89;46.93;99901.48;106063;1251;65446;-51
2023/10/16 12:15:46;;;;;;;5.60;1.60;;;;;;;11.82;47.29;99903.98;105428;1251;61456;-52
2023/10/16 12:18:14;;;;;;;6.80;1.90;;;;;;;11.76;47.74;99904.45;105526;1257;63887;-51
2023/10/16 12:20:42;;;;;;;6.60;2.20;;;;;;;11.73;47.82;99911.93;105565;1251;60471;-52
2023/10/16 12:23:10;;;;;;;6.00;2.20;;;;;;;11.75;47.58;99907.28;105548;1251;60321;-52
2023/10/16 12:25:40;;;;;;;7.10;1.80;;;;;;;11.80;47.22;99913.19;105479;1251;65791;-52
2023/10/16 12:28:08;;;;;;;3.20;1.00;;;;;;;11.84;47.61;99916.80;105542;1257;60421;-49
2023/10/16 12:30:36;;;;;;;4.70;1.60;;;;;;;11.80;47.61;99917.04;105591;1257;64303;-49
2023/10/16 12:33:06;;;;;;;5.10;1.90;;;;;;;11.75;47.92;99915.61;105454;1255;60843;-49
2023/10/16 12:35:34;;;;;;;6.30;1.90;;;;;;;11.74;48.07;99922.03;105795;1252;60341;-47
2023/10/16 12:38:05;;;;;;;5.70;1.60;;;;;;;11.70;48.10;99930.77;107336;1251;64899;-48
2023/10/16 12:40:37;;;;;;;2.40;0.70;;;;;;;11.63;47.97;99932.30;105568;1251;61565;-51
2023/10/16 12:43:08;;;;;;;5.90;1.30;;;;;;;11.54;48.23;99932.78;109402;1251;62572;-53
2023/10/16 12:45:39;;;;;;;5.90;1.70;;;;;;;11.47;48.47;99935.15;109324;1253;58261;-52
2023/10/16 12:48:07;;;;;;;4.20;1.50;;;;;;;11.42;48.63;99948.09;105629;1257;60563;-52
2023/10/16 12:50:35;;;;;;;3.90;1.40;;;;;;;11.37;48.82;99941.19;105513;1257;63791;-53
2023/10/16 12:53:03;;;;;;;5.80;1.70;;;;;;;11.32;49.22;99951.42;105701;1254;63795;-53
2023/10/16 12:55:31;;;;;;;3.50;0.80;;;;;;;11.25;49.09;99956.80;105612;1258;64161;-52
2023/10/16 12:58:00;;;;;;;4.20;1.60;;;;;;;11.19;49.16;99953.61;105651;1254;60565;-52
2023/10/16 13:00:30;;;;;;;6.30;2.10;;;;;;;11.14;49.50;99957.96;105709;1254;60645;-52
2023/10/16 13:02:59;;;;;;;7.90;2.00;;;;;;;11.10;50.22;99965.55;105770;1251;63759;-52
2023/10/16 13:05:30;;;;;;;2.90;0.90;;;;;;;11.03;50.97;99963.29;105886;1253;60592;-52
2023/10/16 13:07:58;;;;;;;5.80;2.10;;;;;;;10.98;51.12;99966.05;105471;1254;73627;-53
2023/10/16 13:10:26;;;;;;;7.30;1.80;;;;;;;10.93;51.69;99965.42;105409;1257;60511;-53
2023/10/16 13:12:55;;;;;;;4.60;0.90;;;;;;;10.88;52.13;99968.83;105938;1254;60466;-53
2023/10/16 13:15:29;;;;;;;5.00;1.90;;;;;;;10.87;52.27;99973.86;106050;1251;63829;-52
2023/10/16 13:17:59;;;;;;;;;;;;;;;10.88;52.24;99980.41;105820;1254;61826;-53
2023/10/16 13:20:28;;;;;;;1.90;0.50;;;;;;;10.89;52.42;99977.20;105784;1254;62444;-54
2023/10/16 13:22:58;;;;;;;5.00;2.10;;;;;;;10.84;52.22;99985.30;105400;1257;60552;-51
2023/10/16 13:25:34;;;;;;;5.80;2.60;;;;;;;10.81;52.76;99982.80;105466;1251;60475;-50
2023/10/16 13:28:03;;;;;;;3.80;1.00;;;;;;;10.78;53.24;99984.84;105391;1256;65057;-51
2023/10/16 13:30:32;;;;;;;7.70;2.30;;;;;;;10.73;54.39;99983.16;105471;1259;60633;-52
2023/10/16 13:33:06;;;;;;;6.70;2.70;;;;;;;10.70;55.28;99996.59;105727;1254;64108;-51
2023/10/16 13:35:38;;;;;;;5.40;2.10;;;;;;;10.68;55.49;100000.64;105715;1254;60475;-50
2023/10/16 13:38:08;;;;;;;4.60;0.90;;;;;;;10.64;55.49;100004.77;105515;1251;60863;-54
2023/10/16 13:40:38;;;;;;;6.60;2.10;;;;;;;10.61;55.62;100010.67;105393;1260;66526;-52
2023/10/16 13:43:10;;;;;;;3.00;0.80;;;;;;;10.55;55.46;100005.23;105480;1251;72602;-54
2023/10/16 13:45:39;;;;;;;6.10;2.60;;;;;;;10.49;55.13;100012.04;105593;1251;62848;-53